sensor_id;sensor_type;location;lat;lon;timestamp;pressure;altitude;pressure_sealevel;temperature;humidity
75996;BME280;64681;49.738;9.004;2023-08-21T00:01:00;100000.09;;;19.84;91.68
75996;BME280;64681;49.738;9.004;2023-08-21T00:03:25;100012.91;;;19.87;91.51
75996;BME280;64681;49.738;9.004;2023-08-21T00:05:51;100005.88;;;19.83;91.62
75996;BME280;64681;49.738;9.004;2023-08-21T00:08:16;100007.91;;;19.93;90.91
75996;BME280;64681;49.738;9.004;2023-08-21T00:10:42;100015.56;;;19.80;91.49
75996;BME280;64681;49.738;9.004;2023-08-21T00:13:07;100010.06;;;19.69;92.20
75996;BME280;64681;49.738;9.004;2023-08-21T00:15:33;100015.13;;;19.78;91.62
75996;BME280;64681;49.738;9.004;2023-08-21T00:17:59;100006.28;;;19.85;91.07
75996;BME280;64681;49.738;9.004;2023-08-21T00:20:26;100002.75;;;19.77;91.82
75996;BME280;64681;49.738;9.004;2023-08-21T00:22:52;100012.38;;;19.71;92.12
75996;BME280;64681;49.738;9.004;2023-08-21T00:25:18;100007.69;;;19.64;92.53
75996;BME280;64681;49.738;9.004;2023-08-21T00:27:43;100015.09;;;19.71;91.78
75996;BME280;64681;49.738;9.004;2023-08-21T00:30:09;100018.47;;;19.57;93.11
75996;BME280;64681;49.738;9.004;2023-08-21T00:32:35;100011.84;;;19.54;93.44
75996;BME280;64681;49.738;9.004;2023-08-21T00:35:00;100019.25;;;19.57;93.25
75996;BME280;64681;49.738;9.004;2023-08-21T00:37:26;100014.19;;;19.56;93.27
75996;BME280;64681;49.738;9.004;2023-08-21T00:39:51;100012.66;;;19.58;92.70
75996;BME280;64681;49.738;9.004;2023-08-21T00:42:17;100018.91;;;19.63;92.25
75996;BME280;64681;49.738;9.004;2023-08-21T00:44:42;100015.41;;;19.66;91.84
75996;BME280;64681;49.738;9.004;2023-08-21T00:47:09;100013.44;;;19.59;92.72
75996;BME280;64681;49.738;9.004;2023-08-21T00:49:34;100009.84;;;19.44;93.87
75996;BME280;64681;49.738;9.004;2023-08-21T00:52:01;100002.50;;;19.44;93.93
75996;BME280;64681;49.738;9.004;2023-08-21T00:54:27;100005.63;;;19.50;93.11
75996;BME280;64681;49.738;9.004;2023-08-21T00:56:53;100003.31;;;19.52;92.71
75996;BME280;64681;49.738;9.004;2023-08-21T00:59:20;100008.69;;;19.45;93.32
75996;BME280;64681;49.738;9.004;2023-08-21T01:01:46;100004.78;;;19.42;93.48
75996;BME280;64681;49.738;9.004;2023-08-21T01:04:11;100009.84;;;19.44;93.11
75996;BME280;64681;49.738;9.004;2023-08-21T01:06:37;100004.28;;;19.29;94.30
75996;BME280;64681;49.738;9.004;2023-08-21T01:09:19;100003.53;;;19.29;94.48
75996;BME280;64681;49.738;9.004;2023-08-21T01:12:11;100003.88;;;19.27;94.72
75996;BME280;64681;49.738;9.004;2023-08-21T01:14:59;100000.75;;;19.22;95.31
75996;BME280;64681;49.738;9.004;2023-08-21T01:17:28;99999.28;;;19.32;93.97
75996;BME280;64681;49.738;9.004;2023-08-21T01:19:55;100000.81;;;19.29;94.44
75996;BME280;64681;49.738;9.004;2023-08-21T01:22:38;100005.38;;;19.21;95.04
75996;BME280;64681;49.738;9.004;2023-08-21T01:25:05;100000.66;;;19.11;95.23
75996;BME280;64681;49.738;9.004;2023-08-21T01:27:32;99996.91;;;19.23;94.54
75996;BME280;64681;49.738;9.004;2023-08-21T01:30:00;100006.53;;;19.20;94.73
75996;BME280;64681;49.738;9.004;2023-08-21T01:35:12;100011.03;;;19.05;96.29
75996;BME280;64681;49.738;9.004;2023-08-21T01:37:38;100014.91;;;19.08;96.32
75996;BME280;64681;49.738;9.004;2023-08-21T01:40:05;100006.38;;;19.06;96.01
75996;BME280;64681;49.738;9.004;2023-08-21T01:42:31;100005.66;;;19.09;95.42
75996;BME280;64681;49.738;9.004;2023-08-21T01:44:56;100006.28;;;18.95;96.61
75996;BME280;64681;49.738;9.004;2023-08-21T01:47:22;100007.81;;;18.92;96.70
75996;BME280;64681;49.738;9.004;2023-08-21T01:49:48;100005.94;;;18.96;96.70
75996;BME280;64681;49.738;9.004;2023-08-21T01:52:13;100008.22;;;18.94;97.07
75996;BME280;64681;49.738;9.004;2023-08-21T01:54:39;100019.31;;;18.89;97.58
75996;BME280;64681;49.738;9.004;2023-08-21T01:57:04;100005.94;;;18.96;96.72
75996;BME280;64681;49.738;9.004;2023-08-21T01:59:30;100010.94;;;18.94;96.98
75996;BME280;64681;49.738;9.004;2023-08-21T02:01:55;100011.69;;;18.95;96.45
75996;BME280;64681;49.738;9.004;2023-08-21T02:04:21;100012.38;;;18.88;96.97
75996;BME280;64681;49.738;9.004;2023-08-21T02:06:47;100022.78;;;18.86;97.52
75996;BME280;64681;49.738;9.004;2023-08-21T02:09:12;100012.44;;;18.92;96.79
75996;BME280;64681;49.738;9.004;2023-08-21T02:11:38;100021.75;;;18.94;96.73
75996;BME280;64681;49.738;9.004;2023-08-21T02:14:03;100014.66;;;18.86;97.13
75996;BME280;64681;49.738;9.004;2023-08-21T02:16:29;100020.69;;;18.72;98.95
75996;BME280;64681;49.738;9.004;2023-08-21T02:18:55;100014.09;;;18.70;99.25
75996;BME280;64681;49.738;9.004;2023-08-21T02:21:21;100011.16;;;18.86;97.75
75996;BME280;64681;49.738;9.004;2023-08-21T02:23:46;100011.88;;;18.79;98.23
75996;BME280;64681;49.738;9.004;2023-08-21T02:26:12;100008.38;;;18.78;98.34
75996;BME280;64681;49.738;9.004;2023-08-21T02:28:37;100013.88;;;18.86;97.36
75996;BME280;64681;49.738;9.004;2023-08-21T02:31:03;100011.13;;;18.82;97.53
75996;BME280;64681;49.738;9.004;2023-08-21T02:33:28;100009.97;;;18.83;96.84
75996;BME280;64681;49.738;9.004;2023-08-21T02:35:54;100017.22;;;18.72;97.36
75996;BME280;64681;49.738;9.004;2023-08-21T02:38:19;100019.84;;;18.64;98.24
75996;BME280;64681;49.738;9.004;2023-08-21T02:40:45;100020.22;;;18.66;97.81
75996;BME280;64681;49.738;9.004;2023-08-21T02:43:10;100015.63;;;18.67;97.54
75996;BME280;64681;49.738;9.004;2023-08-21T02:45:36;100017.19;;;18.68;97.48
75996;BME280;64681;49.738;9.004;2023-08-21T02:48:02;100025.69;;;18.70;97.33
75996;BME280;64681;49.738;9.004;2023-08-21T02:50:27;100014.59;;;18.79;96.32
75996;BME280;64681;49.738;9.004;2023-08-21T02:52:53;100021.41;;;18.65;97.40
75996;BME280;64681;49.738;9.004;2023-08-21T02:55:18;100022.47;;;18.57;98.60
75996;BME280;64681;49.738;9.004;2023-08-21T02:57:45;100016.63;;;18.55;98.60
75996;BME280;64681;49.738;9.004;2023-08-21T03:00:11;100016.59;;;18.51;99.17
75996;BME280;64681;49.738;9.004;2023-08-21T03:02:37;100022.66;;;18.45;99.92
75996;BME280;64681;49.738;9.004;2023-08-21T03:05:04;100016.59;;;18.51;100.00
75996;BME280;64681;49.738;9.004;2023-08-21T03:07:29;100030.16;;;18.55;99.04
75996;BME280;64681;49.738;9.004;2023-08-21T03:09:55;100025.06;;;18.50;99.85
75996;BME280;64681;49.738;9.004;2023-08-21T03:12:20;100024.00;;;18.58;98.24
75996;BME280;64681;49.738;9.004;2023-08-21T03:14:46;100015.84;;;18.55;98.34
75996;BME280;64681;49.738;9.004;2023-08-21T03:17:11;100023.03;;;18.43;99.50
75996;BME280;64681;49.738;9.004;2023-08-21T03:19:37;100020.47;;;18.54;98.47
75996;BME280;64681;49.738;9.004;2023-08-21T03:22:03;100011.69;;;18.61;97.26
75996;BME280;64681;49.738;9.004;2023-08-21T03:24:28;100025.25;;;18.64;96.76
75996;BME280;64681;49.738;9.004;2023-08-21T03:26:54;100022.50;;;18.61;96.52
75996;BME280;64681;49.738;9.004;2023-08-21T03:29:19;100021.34;;;18.62;96.37
75996;BME280;64681;49.738;9.004;2023-08-21T03:31:48;100018.19;;;18.56;96.51
75996;BME280;64681;49.738;9.004;2023-08-21T03:34:14;100025.03;;;18.46;97.49
75996;BME280;64681;49.738;9.004;2023-08-21T03:36:40;100027.78;;;18.50;97.17
75996;BME280;64681;49.738;9.004;2023-08-21T03:39:05;100014.25;;;18.50;96.21
75996;BME280;64681;49.738;9.004;2023-08-21T03:41:31;100027.78;;;18.50;96.49
75996;BME280;64681;49.738;9.004;2023-08-21T03:43:56;100029.19;;;18.40;97.14
75996;BME280;64681;49.738;9.004;2023-08-21T03:46:22;100033.41;;;18.38;97.17
75996;BME280;64681;49.738;9.004;2023-08-21T03:48:47;100032.50;;;18.26;98.09
75996;BME280;64681;49.738;9.004;2023-08-21T03:51:13;100031.44;;;18.34;97.41
75996;BME280;64681;49.738;9.004;2023-08-21T03:53:38;100035.91;;;18.23;98.67
75996;BME280;64681;49.738;9.004;2023-08-21T03:56:04;100033.22;;;18.23;98.54
75996;BME280;64681;49.738;9.004;2023-08-21T03:58:30;100029.78;;;18.26;98.00
75996;BME280;64681;49.738;9.004;2023-08-21T04:00:55;100039.47;;;18.27;97.46
75996;BME280;64681;49.738;9.004;2023-08-21T04:03:21;100031.34;;;18.27;97.68
75996;BME280;64681;49.738;9.004;2023-08-21T04:05:47;100031.34;;;18.27;97.35
75996;BME280;64681;49.738;9.004;2023-08-21T04:08:13;100030.50;;;18.23;97.65
75996;BME280;64681;49.738;9.004;2023-08-21T04:10:39;100040.66;;;18.30;96.99
75996;BME280;64681;49.738;9.004;2023-08-21T04:13:05;100037.56;;;18.31;96.51
75996;BME280;64681;49.738;9.004;2023-08-21T04:15:31;100037.44;;;18.21;97.37
75996;BME280;64681;49.738;9.004;2023-08-21T04:17:57;100035.72;;;18.09;98.64
75996;BME280;64681;49.738;9.004;2023-08-21T04:20:22;100039.88;;;18.02;99.58
75996;BME280;64681;49.738;9.004;2023-08-21T04:22:48;100040.03;;;18.13;98.71
75996;BME280;64681;49.738;9.004;2023-08-21T04:25:14;100034.34;;;18.22;97.78
75996;BME280;64681;49.738;9.004;2023-08-21T04:27:41;100038.63;;;18.23;97.66
75996;BME280;64681;49.738;9.004;2023-08-21T04:30:07;100045.63;;;18.28;97.36
75996;BME280;64681;49.738;9.004;2023-08-21T04:32:33;100044.50;;;18.29;97.39
75996;BME280;64681;49.738;9.004;2023-08-21T04:34:59;100046.09;;;18.33;96.95
75996;BME280;64681;49.738;9.004;2023-08-21T04:37:24;100049.94;;;18.32;97.28
75996;BME280;64681;49.738;9.004;2023-08-21T04:39:51;100050.38;;;18.34;96.77
75996;BME280;64681;49.738;9.004;2023-08-21T04:42:17;100050.38;;;18.34;97.14
75996;BME280;64681;49.738;9.004;2023-08-21T04:44:43;100055.88;;;18.15;98.77
75996;BME280;64681;49.738;9.004;2023-08-21T04:47:21;100051.72;;;18.21;98.52
75996;BME280;64681;49.738;9.004;2023-08-21T04:49:50;100047.28;;;18.36;97.89
75996;BME280;64681;49.738;9.004;2023-08-21T04:52:16;100054.72;;;18.43;97.11
75996;BME280;64681;49.738;9.004;2023-08-21T04:54:42;100048.16;;;18.44;97.36
75996;BME280;64681;49.738;9.004;2023-08-21T04:57:08;100047.47;;;18.50;96.93
75996;BME280;64681;49.738;9.004;2023-08-21T04:59:35;100054.66;;;18.39;97.46
75996;BME280;64681;49.738;9.004;2023-08-21T05:02:00;100060.22;;;18.50;97.28
75996;BME280;64681;49.738;9.004;2023-08-21T05:04:26;100058.75;;;18.56;96.78
75996;BME280;64681;49.738;9.004;2023-08-21T05:06:52;100063.16;;;18.68;96.33
75996;BME280;64681;49.738;9.004;2023-08-21T05:09:17;100062.47;;;18.75;96.34
75996;BME280;64681;49.738;9.004;2023-08-21T05:11:43;100058.69;;;18.83;96.04
75996;BME280;64681;49.738;9.004;2023-08-21T05:14:08;100069.50;;;18.83;95.85
75996;BME280;64681;49.738;9.004;2023-08-21T05:16:35;100062.22;;;18.87;95.85
75996;BME280;64681;49.738;9.004;2023-08-21T05:19:00;100067.66;;;18.87;95.67
75996;BME280;64681;49.738;9.004;2023-08-21T05:21:25;100071.22;;;18.95;95.72
75996;BME280;64681;49.738;9.004;2023-08-21T05:23:51;100066.69;;;19.03;94.95
75996;BME280;64681;49.738;9.004;2023-08-21T05:26:17;100064.88;;;19.14;95.03
75996;BME280;64681;49.738;9.004;2023-08-21T05:28:42;100070.00;;;19.23;94.21
75996;BME280;64681;49.738;9.004;2023-08-21T05:31:08;100068.41;;;19.18;93.93
75996;BME280;64681;49.738;9.004;2023-08-21T05:33:33;100068.06;;;19.23;93.61
75996;BME280;64681;49.738;9.004;2023-08-21T05:35:59;100060.31;;;19.22;94.18
75996;BME280;64681;49.738;9.004;2023-08-21T05:38:24;100068.38;;;19.14;94.13
75996;BME280;64681;49.738;9.004;2023-08-21T05:40:50;100071.53;;;19.24;93.93
75996;BME280;64681;49.738;9.004;2023-08-21T05:43:18;100072.00;;;19.29;93.81
75996;BME280;64681;49.738;9.004;2023-08-21T05:45:44;100076.59;;;19.25;93.14
75996;BME280;64681;49.738;9.004;2023-08-21T05:48:09;100077.81;;;19.32;92.95
75996;BME280;64681;49.738;9.004;2023-08-21T05:50:35;100079.97;;;19.53;92.51
75996;BME280;64681;49.738;9.004;2023-08-21T05:53:05;100082.41;;;19.69;91.61
75996;BME280;64681;49.738;9.004;2023-08-21T05:55:31;100087.13;;;19.75;91.04
75996;BME280;64681;49.738;9.004;2023-08-21T05:57:56;100083.59;;;19.71;90.94
75996;BME280;64681;49.738;9.004;2023-08-21T06:00:22;100087.31;;;19.93;90.46
75996;BME280;64681;49.738;9.004;2023-08-21T06:02:47;100097.63;;;20.29;89.19
75996;BME280;64681;49.738;9.004;2023-08-21T06:05:13;100097.81;;;20.62;88.08
75996;BME280;64681;49.738;9.004;2023-08-21T06:07:39;100095.63;;;20.85;86.63
75996;BME280;64681;49.738;9.004;2023-08-21T06:10:09;100093.41;;;21.20;86.11
75996;BME280;64681;49.738;9.004;2023-08-21T06:12:41;100092.69;;;21.48;82.45
75996;BME280;64681;49.738;9.004;2023-08-21T06:15:07;100100.47;;;21.97;81.90
75996;BME280;64681;49.738;9.004;2023-08-21T06:17:36;100099.28;;;22.52;80.08
75996;BME280;64681;49.738;9.004;2023-08-21T06:20:03;100100.72;;;22.82;75.57
75996;BME280;64681;49.738;9.004;2023-08-21T06:22:37;100097.19;;;22.89;74.60
75996;BME280;64681;49.738;9.004;2023-08-21T06:25:03;100106.63;;;23.48;74.88
75996;BME280;64681;49.738;9.004;2023-08-21T06:27:29;100094.97;;;23.96;72.58
75996;BME280;64681;49.738;9.004;2023-08-21T06:29:55;100104.75;;;24.36;72.58
75996;BME280;64681;49.738;9.004;2023-08-21T06:32:20;100106.19;;;24.82;71.02
75996;BME280;64681;49.738;9.004;2023-08-21T06:34:46;100102.41;;;25.34;70.19
75996;BME280;64681;49.738;9.004;2023-08-21T06:37:11;100107.88;;;25.85;68.38
75996;BME280;64681;49.738;9.004;2023-08-21T06:39:38;100100.06;;;26.31;65.64
75996;BME280;64681;49.738;9.004;2023-08-21T06:42:04;100103.25;;;26.70;64.57
75996;BME280;64681;49.738;9.004;2023-08-21T06:44:30;100108.69;;;27.27;63.28
75996;BME280;64681;49.738;9.004;2023-08-21T06:46:55;100108.75;;;28.39;59.53
75996;BME280;64681;49.738;9.004;2023-08-21T06:49:21;100101.50;;;30.13;54.57
75996;BME280;64681;49.738;9.004;2023-08-21T06:51:46;100108.94;;;32.01;49.55
75996;BME280;64681;49.738;9.004;2023-08-21T06:54:12;100108.16;;;32.99;46.83
75996;BME280;64681;49.738;9.004;2023-08-21T06:56:37;100111.19;;;33.93;44.22
75996;BME280;64681;49.738;9.004;2023-08-21T06:59:03;100109.28;;;33.99;42.19
75996;BME280;64681;49.738;9.004;2023-08-21T07:01:28;100103.41;;;34.81;41.35
75996;BME280;64681;49.738;9.004;2023-08-21T07:03:54;100104.16;;;35.47;40.21
75996;BME280;64681;49.738;9.004;2023-08-21T07:06:20;100098.66;;;35.17;39.83
75996;BME280;64681;49.738;9.004;2023-08-21T07:08:45;100103.22;;;34.85;40.87
75996;BME280;64681;49.738;9.004;2023-08-21T07:11:11;100097.69;;;33.61;42.63
75996;BME280;64681;49.738;9.004;2023-08-21T07:13:38;100098.31;;;32.00;46.32
75996;BME280;64681;49.738;9.004;2023-08-21T07:16:04;100099.09;;;30.59;49.48
75996;BME280;64681;49.738;9.004;2023-08-21T07:18:35;100092.72;;;29.57;52.30
75996;BME280;64681;49.738;9.004;2023-08-21T07:21:01;100098.22;;;28.93;54.65
75996;BME280;64681;49.738;9.004;2023-08-21T07:23:28;100097.44;;;28.20;56.47
75996;BME280;64681;49.738;9.004;2023-08-21T07:25:54;100101.19;;;27.47;58.71
75996;BME280;64681;49.738;9.004;2023-08-21T07:28:20;100099.91;;;27.36;59.15
75996;BME280;64681;49.738;9.004;2023-08-21T07:30:45;100100.28;;;27.17;60.16
75996;BME280;64681;49.738;9.004;2023-08-21T07:33:11;100099.34;;;27.08;61.30
75996;BME280;64681;49.738;9.004;2023-08-21T07:35:36;100093.31;;;26.96;62.44
75996;BME280;64681;49.738;9.004;2023-08-21T07:38:02;100092.34;;;26.86;62.19
75996;BME280;64681;49.738;9.004;2023-08-21T07:40:28;100087.38;;;26.81;62.42
75996;BME280;64681;49.738;9.004;2023-08-21T07:42:54;100093.28;;;26.80;62.75
75996;BME280;64681;49.738;9.004;2023-08-21T07:45:19;100091.50;;;26.69;62.51
75996;BME280;64681;49.738;9.004;2023-08-21T07:47:45;100090.00;;;26.65;61.54
75996;BME280;64681;49.738;9.004;2023-08-21T07:50:11;100089.72;;;26.59;62.33
75996;BME280;64681;49.738;9.004;2023-08-21T07:52:37;100095.06;;;26.26;65.24
75996;BME280;64681;49.738;9.004;2023-08-21T07:55:02;100093.03;;;26.30;64.66
75996;BME280;64681;49.738;9.004;2023-08-21T07:57:28;100098.81;;;26.36;64.44
75996;BME280;64681;49.738;9.004;2023-08-21T07:59:54;100094.22;;;26.09;67.01
75996;BME280;64681;49.738;9.004;2023-08-21T08:02:20;100087.25;;;26.25;65.18
75996;BME280;64681;49.738;9.004;2023-08-21T08:04:46;100088.22;;;26.38;65.08
75996;BME280;64681;49.738;9.004;2023-08-21T08:07:11;100088.34;;;26.51;65.52
75996;BME280;64681;49.738;9.004;2023-08-21T08:09:37;100082.38;;;26.56;65.26
75996;BME280;64681;49.738;9.004;2023-08-21T08:12:03;100088.00;;;26.69;64.94
75996;BME280;64681;49.738;9.004;2023-08-21T08:14:29;100084.50;;;27.05;64.70
75996;BME280;64681;49.738;9.004;2023-08-21T08:16:54;100096.38;;;27.35;64.31
75996;BME280;64681;49.738;9.004;2023-08-21T08:19:20;100089.03;;;27.48;63.96
75996;BME280;64681;49.738;9.004;2023-08-21T08:21:45;100089.09;;;27.94;63.29
75996;BME280;64681;49.738;9.004;2023-08-21T08:24:11;100081.94;;;29.24;59.98
75996;BME280;64681;49.738;9.004;2023-08-21T08:26:37;100064.16;;;30.88;55.26
75996;BME280;64681;49.738;9.004;2023-08-21T08:29:03;100084.75;;;32.67;49.85
75996;BME280;64681;49.738;9.004;2023-08-21T08:31:30;100080.53;;;33.97;45.85
75996;BME280;64681;49.738;9.004;2023-08-21T08:33:56;100087.53;;;34.82;44.88
75996;BME280;64681;49.738;9.004;2023-08-21T08:36:22;100079.34;;;35.64;43.83
75996;BME280;64681;49.738;9.004;2023-08-21T08:38:48;100085.56;;;36.53;41.03
75996;BME280;64681;49.738;9.004;2023-08-21T08:41:25;100075.69;;;37.33;40.00
75996;BME280;64681;49.738;9.004;2023-08-21T08:43:56;100078.75;;;38.01;38.41
75996;BME280;64681;49.738;9.004;2023-08-21T08:46:24;100071.72;;;38.40;37.70
75996;BME280;64681;49.738;9.004;2023-08-21T08:48:52;100073.50;;;38.38;37.85
75996;BME280;64681;49.738;9.004;2023-08-21T08:51:18;100083.72;;;37.69;37.65
75996;BME280;64681;49.738;9.004;2023-08-21T08:53:44;100068.91;;;38.35;38.10
75996;BME280;64681;49.738;9.004;2023-08-21T08:56:10;100068.38;;;38.93;37.05
75996;BME280;64681;49.738;9.004;2023-08-21T08:58:35;100068.91;;;38.46;34.96
75996;BME280;64681;49.738;9.004;2023-08-21T09:01:01;100065.06;;;38.26;35.74
75996;BME280;64681;49.738;9.004;2023-08-21T09:03:28;100061.47;;;37.80;37.53
75996;BME280;64681;49.738;9.004;2023-08-21T09:05:53;100059.44;;;39.12;36.15
75996;BME280;64681;49.738;9.004;2023-08-21T09:08:19;100059.28;;;39.51;36.06
75996;BME280;64681;49.738;9.004;2023-08-21T09:10:45;100059.19;;;38.98;36.35
75996;BME280;64681;49.738;9.004;2023-08-21T09:13:15;100058.16;;;37.16;36.92
75996;BME280;64681;49.738;9.004;2023-08-21T09:15:46;100057.94;;;37.85;36.33
75996;BME280;64681;49.738;9.004;2023-08-21T09:18:15;100052.16;;;38.17;35.70
75996;BME280;64681;49.738;9.004;2023-08-21T09:20:42;100049.94;;;36.57;38.37
75996;BME280;64681;49.738;9.004;2023-08-21T09:23:14;100052.03;;;35.84;40.42
75996;BME280;64681;49.738;9.004;2023-08-21T09:25:40;100050.28;;;35.03;40.99
75996;BME280;64681;49.738;9.004;2023-08-21T09:28:09;100045.81;;;34.91;41.04
75996;BME280;64681;49.738;9.004;2023-08-21T09:30:49;100050.09;;;32.90;45.84
75996;BME280;64681;49.738;9.004;2023-08-21T09:33:19;100052.16;;;31.72;51.68
75996;BME280;64681;49.738;9.004;2023-08-21T09:35:45;100045.69;;;31.66;51.82
75996;BME280;64681;49.738;9.004;2023-08-21T09:38:11;100042.00;;;31.88;48.31
75996;BME280;64681;49.738;9.004;2023-08-21T09:40:39;100039.66;;;31.49;50.65
75996;BME280;64681;49.738;9.004;2023-08-21T09:43:08;100036.69;;;30.75;52.03
75996;BME280;64681;49.738;9.004;2023-08-21T09:45:35;100035.41;;;31.07;50.67
75996;BME280;64681;49.738;9.004;2023-08-21T09:48:01;100032.19;;;31.00;49.80
75996;BME280;64681;49.738;9.004;2023-08-21T09:50:29;100033.28;;;29.95;45.97
75996;BME280;64681;49.738;9.004;2023-08-21T09:52:56;100043.00;;;30.31;44.85
75996;BME280;64681;49.738;9.004;2023-08-21T09:55:23;100039.78;;;29.53;47.27
75996;BME280;64681;49.738;9.004;2023-08-21T09:57:51;100032.38;;;29.85;47.22
75996;BME280;64681;49.738;9.004;2023-08-21T10:00:28;100046.97;;;29.37;49.63
75996;BME280;64681;49.738;9.004;2023-08-21T10:02:59;100038.50;;;29.67;47.81
75996;BME280;64681;49.738;9.004;2023-08-21T10:05:27;100040.09;;;29.90;47.75
75996;BME280;64681;49.738;9.004;2023-08-21T10:07:55;100041.22;;;29.93;46.49
75996;BME280;64681;49.738;9.004;2023-08-21T10:10:21;100038.41;;;30.06;46.93
75996;BME280;64681;49.738;9.004;2023-08-21T10:12:48;100039.50;;;30.08;45.88
75996;BME280;64681;49.738;9.004;2023-08-21T10:15:15;100031.28;;;29.95;45.65
75996;BME280;64681;49.738;9.004;2023-08-21T10:17:43;100028.53;;;29.95;47.21
75996;BME280;64681;49.738;9.004;2023-08-21T10:20:09;100035.59;;;30.19;47.39
75996;BME280;64681;49.738;9.004;2023-08-21T10:22:47;100025.75;;;30.40;43.81
75996;BME280;64681;49.738;9.004;2023-08-21T10:27:43;100028.28;;;29.67;45.80
75996;BME280;64681;49.738;9.004;2023-08-21T10:32:50;100020.78;;;30.25;45.65
75996;BME280;64681;49.738;9.004;2023-08-21T10:35:20;100022.03;;;29.89;48.38
75996;BME280;64681;49.738;9.004;2023-08-21T10:38:05;100016.19;;;30.22;43.28
75996;BME280;64681;49.738;9.004;2023-08-21T10:40:32;100009.56;;;30.20;47.11
75996;BME280;64681;49.738;9.004;2023-08-21T10:42:59;100018.72;;;29.94;46.23
75996;BME280;64681;49.738;9.004;2023-08-21T10:45:24;100014.34;;;29.84;43.61
75996;BME280;64681;49.738;9.004;2023-08-21T10:47:50;100010.50;;;29.81;47.13
75996;BME280;64681;49.738;9.004;2023-08-21T10:50:16;100009.56;;;30.20;45.85
75996;BME280;64681;49.738;9.004;2023-08-21T10:52:44;100011.94;;;30.08;45.12
75996;BME280;64681;49.738;9.004;2023-08-21T10:55:15;100001.91;;;29.92;44.14
75996;BME280;64681;49.738;9.004;2023-08-21T10:57:41;99995.84;;;30.29;44.19
75996;BME280;64681;49.738;9.004;2023-08-21T11:00:09;99997.69;;;30.54;44.17
75996;BME280;64681;49.738;9.004;2023-08-21T11:02:38;99997.03;;;29.96;47.00
75996;BME280;64681;49.738;9.004;2023-08-21T11:05:05;99996.09;;;29.77;48.33
75996;BME280;64681;49.738;9.004;2023-08-21T11:07:42;99988.69;;;30.09;49.14
75996;BME280;64681;49.738;9.004;2023-08-21T11:10:15;99991.28;;;30.35;47.62
75996;BME280;64681;49.738;9.004;2023-08-21T11:12:55;99998.91;;;30.53;46.48
75996;BME280;64681;49.738;9.004;2023-08-21T11:15:22;99992.81;;;30.05;49.68
75996;BME280;64681;49.738;9.004;2023-08-21T11:18:02;99994.69;;;30.39;48.34
75996;BME280;64681;49.738;9.004;2023-08-21T11:20:35;99998.16;;;30.30;49.22
75996;BME280;64681;49.738;9.004;2023-08-21T11:23:06;100003.91;;;30.23;49.59
75996;BME280;64681;49.738;9.004;2023-08-21T11:25:33;99996.78;;;30.04;49.18
75996;BME280;64681;49.738;9.004;2023-08-21T11:28:00;99999.69;;;29.87;49.82
75996;BME280;64681;49.738;9.004;2023-08-21T11:30:28;100003.72;;;29.73;50.19
75996;BME280;64681;49.738;9.004;2023-08-21T11:33:12;99998.94;;;29.51;50.69
75996;BME280;64681;49.738;9.004;2023-08-21T11:35:39;100006.66;;;29.79;50.34
75996;BME280;64681;49.738;9.004;2023-08-21T11:38:05;99999.69;;;29.65;48.84
75996;BME280;64681;49.738;9.004;2023-08-21T11:40:34;99992.59;;;29.77;48.80
75996;BME280;64681;49.738;9.004;2023-08-21T11:43:00;100000.53;;;29.97;49.45
75996;BME280;64681;49.738;9.004;2023-08-21T11:45:26;99997.91;;;29.93;49.00
75996;BME280;64681;49.738;9.004;2023-08-21T11:47:55;99994.34;;;30.06;48.46
75996;BME280;64681;49.738;9.004;2023-08-21T11:50:21;99996.63;;;30.07;47.18
75996;BME280;64681;49.738;9.004;2023-08-21T11:52:46;99996.78;;;30.04;46.03
75996;BME280;64681;49.738;9.004;2023-08-21T11:55:12;99990.66;;;30.09;46.19
75996;BME280;64681;49.738;9.004;2023-08-21T11:57:51;99987.97;;;30.18;46.35
75996;BME280;64681;49.738;9.004;2023-08-21T12:00:18;99990.41;;;30.16;47.81
75996;BME280;64681;49.738;9.004;2023-08-21T12:02:56;99984.53;;;30.27;46.09
75996;BME280;64681;49.738;9.004;2023-08-21T12:05:22;99983.53;;;30.11;48.98
75996;BME280;64681;49.738;9.004;2023-08-21T12:07:48;99981.25;;;30.19;48.33
75996;BME280;64681;49.738;9.004;2023-08-21T12:10:14;99982.53;;;30.27;47.70
75996;BME280;64681;49.738;9.004;2023-08-21T12:12:39;99985.03;;;30.12;46.09
75996;BME280;64681;49.738;9.004;2023-08-21T12:15:05;99985.25;;;30.50;46.75
75996;BME280;64681;49.738;9.004;2023-08-21T12:17:31;99973.66;;;30.55;44.69
75996;BME280;64681;49.738;9.004;2023-08-21T12:19:56;99982.25;;;30.57;45.38
75996;BME280;64681;49.738;9.004;2023-08-21T12:22:22;99975.34;;;30.52;45.27
75996;BME280;64681;49.738;9.004;2023-08-21T12:24:47;99982.38;;;30.53;46.79
75996;BME280;64681;49.738;9.004;2023-08-21T12:27:13;99976.25;;;30.27;48.34
75996;BME280;64681;49.738;9.004;2023-08-21T12:29:38;99979.78;;;30.27;48.71
75996;BME280;64681;49.738;9.004;2023-08-21T12:32:04;99981.53;;;30.12;49.49
75996;BME280;64681;49.738;9.004;2023-08-21T12:34:30;99983.44;;;30.02;50.63
75996;BME280;64681;49.738;9.004;2023-08-21T12:36:55;99983.28;;;29.83;51.57
75996;BME280;64681;49.738;9.004;2023-08-21T12:39:21;99975.47;;;29.82;50.11
75996;BME280;64681;49.738;9.004;2023-08-21T12:41:47;99975.00;;;29.96;48.17
75996;BME280;64681;49.738;9.004;2023-08-21T12:44:14;99975.63;;;30.23;48.02
75996;BME280;64681;49.738;9.004;2023-08-21T12:46:40;99980.66;;;30.24;48.47
75996;BME280;64681;49.738;9.004;2023-08-21T12:49:06;99965.72;;;30.57;48.07
75996;BME280;64681;49.738;9.004;2023-08-21T12:51:32;99974.28;;;30.59;45.94
75996;BME280;64681;49.738;9.004;2023-08-21T12:53:58;99964.69;;;30.41;46.41
75996;BME280;64681;49.738;9.004;2023-08-21T12:56:23;99965.97;;;30.50;46.69
75996;BME280;64681;49.738;9.004;2023-08-21T12:58:49;99960.81;;;30.29;46.92